Archival Weather

Fukuoka

Fukuoka, Japan (RJFF)

Report from: Tuesday, August 16, 2022 6:30 AM JST
Current time: Sunday, November 27, 2022 6:58 PM JST

Current weather
Weather history
Weather forecast

Present weatherRain showers, rain showers
Temperature28.0°C (82.4°F)
Heat index32.7°C (90.9°F)
Dew point25.0°C (77.0°F)
Winds 10 kts (5.1 m/s, 11.5 mph) South-Southeast (150°)
Visibility6.2 mi. (10 km)
Clouds Few clouds 500 ft. (152 m)
Scattered clouds 3,000 ft. (914 m)
Ceiling: Broken clouds with towering cumulus 3,500 ft. (1,067 m)
Altimeter29.74 in.Hg (1007 mB)
Relative humidity84 %
Density altitude2,129 ft. (649 m)
Flight conditions Visual Meteorological Conditions
Raw dataRJFF 152130Z 15010KT 9999 SHRA FEW005 SCT030 BKN035TCU 28/25 Q1007 TEMPO 3000 SHRA BR
An error has occurred. This application may no longer respond until reloaded. Reload 🗙